createdAt,value
2022-07-28T00:01:05.826Z,18.50
2022-07-28T00:03:32.477Z,18.38
2022-07-28T00:05:59.082Z,18.48
2022-07-28T00:08:25.647Z,18.37
2022-07-28T00:10:52.208Z,18.26
2022-07-28T00:13:18.820Z,18.18
2022-07-28T00:15:45.376Z,18.03
2022-07-28T00:18:11.999Z,18.07
2022-07-28T00:20:38.593Z,17.94
2022-07-28T00:23:05.143Z,18.00
2022-07-28T00:25:31.723Z,17.91
2022-07-28T00:27:58.270Z,18.02
2022-07-28T00:30:24.812Z,17.92
2022-07-28T00:32:54.594Z,17.97
2022-07-28T00:35:25.208Z,17.82
2022-07-28T00:37:57.283Z,17.80
2022-07-28T00:40:46.197Z,17.84
2022-07-28T00:43:12.908Z,17.74
2022-07-28T00:45:39.460Z,17.59
2022-07-28T00:48:06.521Z,17.57
2022-07-28T00:50:33.289Z,17.64
2022-07-28T00:53:00.294Z,17.66
2022-07-28T00:55:26.908Z,17.67
2022-07-28T00:57:53.469Z,17.57
2022-07-28T01:00:19.981Z,17.44
2022-07-28T01:02:46.800Z,17.32
2022-07-28T01:05:14.931Z,17.62
2022-07-28T01:08:04.516Z,17.63
2022-07-28T01:10:46.197Z,17.73
2022-07-28T01:13:30.133Z,17.60
2022-07-28T01:16:03.761Z,17.58
2022-07-28T01:18:36.659Z,17.51
2022-07-28T01:21:08.180Z,17.48
2022-07-28T01:24:06.559Z,17.53
2022-07-28T01:26:48.758Z,17.13
2022-07-28T01:29:37.056Z,17.32
2022-07-28T01:32:08.947Z,17.46
2022-07-28T01:34:43.009Z,17.38
2022-07-28T01:37:14.406Z,17.47
2022-07-28T01:39:42.817Z,17.40
2022-07-28T01:42:10.367Z,17.46
2022-07-28T01:44:41.987Z,17.50
2022-07-28T01:47:09.336Z,17.52
2022-07-28T01:49:37.405Z,17.48
2022-07-28T01:52:07.080Z,17.50
2022-07-28T01:54:34.903Z,17.52
2022-07-28T01:57:02.335Z,17.52
2022-07-28T01:59:29.748Z,17.44
2022-07-28T02:02:00.576Z,17.37
2022-07-28T02:04:27.625Z,17.39
2022-07-28T02:06:55.570Z,17.44
2022-07-28T02:09:23.024Z,17.34
2022-07-28T02:11:53.939Z,17.36
2022-07-28T02:14:24.949Z,17.30
2022-07-28T02:17:04.265Z,17.31
2022-07-28T02:19:32.062Z,17.36
2022-07-28T02:21:58.625Z,17.31
2022-07-28T02:24:28.637Z,17.37
2022-07-28T02:27:05.326Z,17.34
2022-07-28T02:29:50.400Z,17.28
2022-07-28T02:32:29.618Z,17.27
2022-07-28T02:35:12.107Z,17.15
2022-07-28T02:37:41.515Z,17.16
2022-07-28T02:40:13.736Z,17.12
2022-07-28T02:42:41.686Z,17.22
2022-07-28T02:45:11.656Z,17.21
2022-07-28T02:47:42.484Z,17.11
2022-07-28T02:50:15.059Z,17.03
2022-07-28T02:52:42.794Z,17.00
2022-07-28T02:55:11.406Z,17.04
2022-07-28T02:57:39.616Z,17.15
2022-07-28T03:00:06.791Z,16.91
2022-07-28T03:02:36.666Z,16.94
2022-07-28T03:05:07.484Z,17.01
2022-07-28T03:07:43.754Z,16.90
2022-07-28T03:10:19.595Z,16.93
2022-07-28T03:13:01.926Z,16.93
2022-07-28T03:15:28.599Z,17.03
2022-07-28T03:17:55.344Z,16.88
2022-07-28T03:20:21.987Z,16.98
2022-07-28T03:22:48.572Z,16.90
2022-07-28T03:25:26.802Z,16.86
2022-07-28T03:27:54.316Z,16.90
2022-07-28T03:30:24.568Z,16.92
2022-07-28T03:32:54.201Z,16.93
2022-07-28T03:35:25.087Z,16.94
2022-07-28T03:38:00.646Z,16.85
2022-07-28T03:40:31.816Z,16.85
2022-07-28T03:43:00.105Z,16.86
2022-07-28T03:45:27.122Z,16.82
2022-07-28T03:47:55.300Z,16.77
2022-07-28T03:50:26.024Z,16.86
2022-07-28T03:52:53.176Z,16.89
2022-07-28T03:55:20.129Z,16.85
2022-07-28T03:57:46.972Z,16.89
2022-07-28T04:00:16.240Z,16.84
2022-07-28T04:02:44.192Z,16.81
2022-07-28T04:05:15.233Z,16.77
2022-07-28T04:07:42.195Z,16.74
2022-07-28T04:10:10.893Z,16.76
2022-07-28T04:12:55.501Z,16.69
2022-07-28T04:15:24.321Z,16.50
2022-07-28T04:17:55.346Z,16.63
2022-07-28T04:20:23.762Z,16.45
2022-07-28T04:22:51.117Z,16.67
2022-07-28T04:25:21.722Z,16.67
2022-07-28T04:27:48.372Z,16.72
2022-07-28T04:30:20.861Z,16.74
2022-07-28T04:32:52.520Z,16.78
2022-07-28T04:35:22.295Z,16.81
2022-07-28T04:37:49.194Z,16.91
2022-07-28T04:40:19.109Z,16.99
2022-07-28T04:42:48.947Z,17.00
2022-07-28T04:45:15.889Z,17.08
2022-07-28T04:47:42.799Z,17.11
2022-07-28T04:50:11.093Z,17.21
2022-07-28T04:52:38.486Z,17.26
2022-07-28T04:55:06.637Z,17.33
2022-07-28T04:57:34.731Z,17.36
2022-07-28T05:00:12.538Z,17.38
2022-07-28T05:02:44.806Z,17.42
2022-07-28T05:05:12.449Z,17.31
2022-07-28T05:07:39.643Z,17.46
2022-07-28T05:10:07.928Z,17.43
2022-07-28T05:12:34.711Z,17.45
2022-07-28T05:15:01.598Z,17.41
2022-07-28T05:17:28.479Z,17.47
2022-07-28T05:19:55.543Z,17.48
2022-07-28T05:22:22.454Z,17.18
2022-07-28T05:24:49.152Z,17.15
2022-07-28T05:27:16.002Z,17.30
2022-07-28T05:29:47.124Z,17.34
2022-07-28T05:32:16.132Z,17.36
2022-07-28T05:34:43.894Z,17.43
2022-07-28T05:37:10.744Z,17.60
2022-07-28T05:39:40.243Z,17.42
2022-07-28T05:42:09.532Z,17.60
2022-07-28T05:44:38.492Z,17.68
2022-07-28T05:47:06.258Z,17.67
2022-07-28T05:49:33.868Z,17.67
2022-07-28T05:52:00.650Z,17.71
2022-07-28T05:54:28.281Z,17.74
2022-07-28T05:56:55.479Z,17.79
2022-07-28T05:59:25.020Z,17.85
2022-07-28T06:01:52.926Z,17.85
2022-07-28T06:04:28.344Z,17.90
2022-07-28T06:07:05.447Z,17.93
2022-07-28T06:09:32.710Z,17.95
2022-07-28T06:12:01.980Z,18.04
2022-07-28T06:14:29.166Z,17.97
2022-07-28T06:16:56.625Z,18.09
2022-07-28T06:19:27.016Z,18.07
2022-07-28T06:21:54.402Z,18.20
2022-07-28T06:24:21.969Z,18.33
2022-07-28T06:26:52.611Z,18.31
2022-07-28T06:29:21.212Z,18.22
2022-07-28T06:31:49.834Z,18.33
2022-07-28T06:34:18.461Z,18.41
2022-07-28T06:37:00.357Z,18.46
2022-07-28T06:39:30.394Z,18.52
2022-07-28T06:44:58.398Z,18.55
2022-07-28T06:47:29.944Z,18.50
2022-07-28T06:52:45.697Z,18.48
2022-07-28T06:55:16.852Z,18.57
2022-07-28T06:57:52.900Z,18.77
2022-07-28T07:00:20.223Z,18.85
2022-07-28T07:02:47.922Z,18.80
2022-07-28T07:05:16.042Z,18.73
2022-07-28T07:07:43.930Z,18.91
2022-07-28T07:10:12.229Z,18.92
2022-07-28T07:12:41.516Z,18.98
2022-07-28T07:15:09.407Z,18.87
2022-07-28T07:17:38.873Z,18.60
2022-07-28T07:20:07.188Z,18.78
2022-07-28T07:22:36.519Z,18.87
2022-07-28T07:25:14.955Z,18.98
2022-07-28T07:27:47.776Z,19.10
2022-07-28T07:30:23.360Z,19.36
2022-07-28T07:32:50.472Z,19.96
2022-07-28T07:35:17.945Z,20.36
2022-07-28T07:37:48.550Z,20.80
2022-07-28T07:40:17.988Z,20.74
2022-07-28T07:42:45.443Z,20.82
2022-07-28T07:45:12.618Z,20.59
2022-07-28T07:47:39.523Z,20.52
2022-07-28T07:50:07.528Z,20.27
2022-07-28T07:52:39.934Z,20.79
2022-07-28T07:55:10.662Z,20.99
2022-07-28T07:57:40.750Z,21.17
2022-07-28T08:00:28.269Z,20.89
2022-07-28T08:02:56.324Z,20.80
2022-07-28T08:05:34.942Z,20.72
2022-07-28T08:08:05.670Z,21.09
2022-07-28T08:10:35.697Z,21.10
2022-07-28T08:13:07.043Z,20.93
2022-07-28T08:15:34.797Z,21.03
2022-07-28T08:18:07.526Z,21.26
2022-07-28T08:20:35.031Z,21.52
2022-07-28T08:23:03.627Z,21.43
2022-07-28T08:25:30.937Z,21.61
2022-07-28T08:27:58.066Z,21.72
2022-07-28T08:30:30.257Z,22.28
2022-07-28T08:32:59.689Z,22.44
2022-07-28T08:35:35.859Z,22.70
2022-07-28T08:38:04.981Z,23.24
2022-07-28T08:40:32.458Z,23.20
2022-07-28T08:43:26.380Z,23.22
2022-07-28T08:45:58.100Z,22.87
2022-07-28T08:48:25.927Z,23.88
2022-07-28T08:50:52.755Z,23.57
2022-07-28T08:53:20.555Z,23.25
2022-07-28T08:55:48.557Z,23.56
2022-07-28T08:58:16.658Z,23.45
2022-07-28T09:00:43.181Z,23.57
2022-07-28T09:03:12.499Z,23.48
2022-07-28T09:05:43.775Z,23.25
2022-07-28T09:08:11.810Z,22.87
2022-07-28T09:10:38.474Z,23.26
2022-07-28T09:13:07.339Z,23.38
2022-07-28T09:15:35.123Z,23.37
2022-07-28T09:18:02.538Z,23.61
2022-07-28T09:20:29.772Z,24.16
2022-07-28T09:23:01.605Z,24.14
2022-07-28T09:25:30.072Z,24.42
2022-07-28T09:28:18.166Z,24.82
2022-07-28T09:30:54.391Z,24.62
2022-07-28T09:33:42.604Z,24.74
2022-07-28T09:36:16.226Z,25.30
2022-07-28T09:38:43.231Z,24.92
2022-07-28T09:41:09.874Z,24.84
2022-07-28T09:43:43.481Z,24.67
2022-07-28T09:46:13.118Z,24.74
2022-07-28T09:48:49.296Z,25.39
2022-07-28T09:51:35.832Z,25.34
2022-07-28T09:54:17.935Z,25.78
2022-07-28T09:56:45.575Z,25.84
2022-07-28T09:59:15.019Z,25.83
2022-07-28T10:01:51.434Z,25.79
2022-07-28T10:04:30.709Z,26.07
2022-07-28T10:07:05.713Z,26.45
2022-07-28T10:09:33.141Z,26.77
2022-07-28T10:12:21.789Z,26.60
2022-07-28T10:14:50.438Z,26.32
2022-07-28T10:17:33.247Z,26.73
2022-07-28T10:20:01.985Z,26.61
2022-07-28T10:22:39.499Z,26.84
2022-07-28T10:25:10.680Z,27.06
2022-07-28T10:27:40.034Z,27.15
2022-07-28T10:30:07.054Z,27.41
2022-07-28T10:32:53.564Z,27.09
2022-07-28T10:35:23.792Z,27.07
2022-07-28T10:38:03.536Z,26.81
2022-07-28T10:40:37.277Z,26.87
2022-07-28T10:43:04.894Z,26.70
2022-07-28T10:51:48.861Z,26.58
2022-07-28T10:55:00.409Z,26.79
2022-07-28T10:57:29.735Z,26.86
2022-07-28T11:03:14.297Z,27.17
2022-07-28T11:05:42.719Z,26.83
2022-07-28T11:08:27.664Z,26.88
2022-07-28T11:11:00.868Z,26.79
2022-07-28T11:13:37.125Z,27.07
2022-07-28T11:16:14.265Z,26.69
2022-07-28T11:19:04.642Z,26.48
2022-07-28T11:21:39.685Z,27.01
2022-07-28T11:24:07.663Z,27.29
2022-07-28T11:26:36.048Z,27.10
2022-07-28T11:29:08.468Z,27.19
2022-07-28T11:31:44.054Z,26.59
2022-07-28T11:34:16.323Z,27.24
2022-07-28T11:37:09.984Z,27.23
2022-07-28T11:39:44.062Z,27.20
2022-07-28T11:42:37.357Z,27.58
2022-07-28T11:45:39.273Z,27.93
2022-07-28T11:48:18.985Z,28.09
2022-07-28T11:51:03.832Z,27.85
2022-07-28T11:53:57.017Z,27.13
2022-07-28T11:56:26.273Z,27.38
2022-07-28T11:58:57.508Z,27.87
2022-07-28T12:01:24.016Z,27.45
2022-07-28T12:03:55.615Z,27.96
2022-07-28T12:06:29.102Z,28.41
2022-07-28T12:09:02.315Z,28.76
2022-07-28T12:11:33.024Z,28.11
2022-07-28T12:14:13.961Z,28.32
2022-07-28T12:16:43.570Z,28.29
2022-07-28T12:19:11.150Z,28.04
2022-07-28T12:21:47.873Z,27.49
2022-07-28T12:24:17.420Z,27.84
2022-07-28T12:26:49.159Z,27.90
2022-07-28T12:29:16.892Z,27.83
2022-07-28T12:31:56.503Z,27.79
2022-07-28T12:34:24.180Z,27.77
2022-07-28T12:36:57.706Z,27.98
2022-07-28T12:39:25.719Z,28.02
2022-07-28T12:42:03.973Z,28.21
2022-07-28T12:44:43.869Z,28.39
2022-07-28T12:47:12.878Z,28.07
2022-07-28T12:49:41.698Z,28.56
2022-07-28T12:52:34.542Z,28.80
2022-07-28T12:55:01.255Z,28.76
2022-07-28T12:57:50.883Z,28.40
2022-07-28T13:00:20.351Z,28.42
2022-07-28T13:02:47.922Z,28.86
2022-07-28T13:06:08.267Z,28.57
2022-07-28T13:08:47.517Z,28.46
2022-07-28T13:11:42.560Z,28.24
2022-07-28T13:14:02.390Z,28.27
2022-07-28T13:16:29.528Z,28.28
2022-07-28T13:19:03.867Z,28.43
2022-07-28T13:21:58.852Z,28.33
2022-07-28T13:24:28.221Z,28.44
2022-07-28T13:26:54.900Z,28.51
2022-07-28T13:29:22.472Z,28.71
2022-07-28T13:31:49.312Z,28.44
2022-07-28T13:34:16.317Z,28.47
2022-07-28T13:36:43.241Z,28.47
2022-07-28T13:39:14.115Z,28.59
2022-07-28T13:41:57.971Z,28.53
2022-07-28T13:44:29.971Z,28.22
2022-07-28T13:46:59.030Z,28.18
2022-07-28T13:49:27.348Z,28.19
2022-07-28T13:51:54.262Z,28.24
2022-07-28T13:54:21.135Z,28.19
2022-07-28T13:57:15.923Z,28.20
2022-07-28T13:59:43.870Z,28.15
2022-07-28T14:02:15.400Z,28.27
2022-07-28T14:04:45.743Z,27.86
2022-07-28T14:07:15.513Z,27.94
2022-07-28T14:09:47.566Z,27.93
2022-07-28T14:12:14.303Z,27.98
2022-07-28T14:14:40.757Z,28.22
2022-07-28T14:17:40.039Z,28.16
2022-07-28T14:20:01.970Z,28.23
2022-07-28T14:22:28.447Z,27.89
2022-07-28T14:24:54.882Z,27.91
2022-07-28T14:27:24.651Z,27.60
2022-07-28T14:29:53.984Z,27.78
2022-07-28T14:32:20.461Z,27.93
2022-07-28T14:34:46.995Z,28.04
2022-07-28T14:37:14.262Z,27.58
2022-07-28T14:39:40.915Z,27.72
2022-07-28T14:42:07.545Z,27.71
2022-07-28T14:44:34.577Z,27.73
2022-07-28T14:47:01.105Z,27.80
2022-07-28T14:49:28.057Z,27.73
2022-07-28T14:51:56.156Z,27.62
2022-07-28T14:54:22.684Z,27.67
2022-07-28T14:56:49.190Z,27.45
2022-07-28T14:59:15.874Z,27.50
2022-07-28T15:01:42.410Z,27.35
2022-07-28T15:04:10.140Z,27.25
2022-07-28T15:06:36.637Z,27.45
2022-07-28T15:09:03.682Z,27.58
2022-07-28T15:11:30.507Z,27.25
2022-07-28T15:13:57.065Z,27.33
2022-07-28T15:16:23.678Z,27.37
2022-07-28T15:18:51.990Z,27.47
2022-07-28T15:21:18.549Z,27.50
2022-07-28T15:23:45.242Z,27.53
2022-07-28T15:26:12.184Z,27.35
2022-07-28T15:28:39.136Z,27.23
2022-07-28T15:31:08.548Z,27.28
2022-07-28T15:33:38.938Z,27.27
2022-07-28T15:36:14.470Z,27.37
2022-07-28T15:38:40.960Z,27.51
2022-07-28T15:41:07.487Z,27.62
2022-07-28T15:43:34.025Z,27.53
2022-07-28T15:46:05.733Z,27.62
2022-07-28T15:48:32.184Z,27.52
2022-07-28T15:50:58.714Z,27.59
2022-07-28T15:53:25.228Z,27.59
2022-07-28T15:55:52.092Z,27.83
2022-07-28T15:58:20.282Z,27.56
2022-07-28T16:00:46.774Z,27.72
2022-07-28T16:03:13.717Z,27.53
2022-07-28T16:05:40.286Z,27.68
2022-07-28T16:08:06.857Z,27.60
2022-07-28T16:10:33.663Z,27.48
2022-07-28T16:13:00.186Z,27.69
2022-07-28T16:15:26.839Z,27.82
2022-07-28T16:17:54.448Z,27.62
2022-07-28T16:20:21.509Z,27.93
2022-07-28T16:22:48.209Z,27.86
2022-07-28T16:25:19.756Z,27.93
2022-07-28T16:27:47.505Z,27.85
2022-07-28T16:30:14.695Z,28.13
2022-07-28T16:32:41.725Z,28.23
2022-07-28T16:35:09.025Z,28.21
2022-07-28T16:37:36.144Z,28.04
2022-07-28T16:40:03.680Z,27.77
2022-07-28T16:42:30.245Z,27.71
2022-07-28T16:44:57.137Z,27.74
2022-07-28T16:47:23.683Z,27.53
2022-07-28T16:49:50.206Z,27.69
2022-07-28T16:52:16.721Z,27.54
2022-07-28T16:54:43.276Z,27.59
2022-07-28T16:57:09.875Z,27.66
2022-07-28T16:59:45.575Z,27.29
2022-07-28T17:02:14.509Z,27.47
2022-07-28T17:04:41.017Z,27.49
2022-07-28T17:07:08.220Z,27.29
2022-07-28T17:09:34.781Z,27.38
2022-07-28T17:12:01.252Z,27.43
2022-07-28T17:14:27.691Z,27.38
2022-07-28T17:16:54.253Z,27.56
2022-07-28T17:19:22.049Z,27.50
2022-07-28T17:21:48.609Z,27.62
2022-07-28T17:24:15.585Z,27.54
2022-07-28T17:29:28.953Z,27.44
2022-07-28T17:31:55.570Z,27.22
2022-07-28T17:34:22.039Z,27.29
2022-07-28T17:36:50.322Z,27.22
2022-07-28T17:39:16.785Z,27.11
2022-07-28T17:41:43.271Z,26.97
2022-07-28T17:44:09.769Z,26.96
2022-07-28T17:46:36.336Z,26.89
2022-07-28T17:49:05.675Z,26.94
2022-07-28T17:51:32.383Z,26.88
2022-07-28T17:53:58.924Z,26.87
2022-07-28T17:56:25.881Z,26.89
2022-07-28T17:58:52.702Z,26.90
2022-07-28T18:01:19.267Z,26.75
2022-07-28T18:03:57.130Z,26.77
2022-07-28T18:06:34.481Z,26.73
2022-07-28T18:09:07.903Z,26.61
2022-07-28T18:11:55.427Z,26.54
2022-07-28T18:14:28.737Z,26.68
2022-07-28T18:16:55.570Z,26.66
2022-07-28T18:19:22.232Z,26.50
2022-07-28T18:21:49.108Z,26.49
2022-07-28T18:24:16.270Z,26.53
2022-07-28T18:26:43.144Z,26.39
2022-07-28T18:29:09.646Z,26.44
2022-07-28T18:31:43.871Z,26.20
2022-07-28T18:34:13.432Z,26.19
2022-07-28T18:36:40.165Z,26.10
2022-07-28T18:39:06.816Z,26.16
2022-07-28T18:41:46.038Z,26.21
2022-07-28T18:44:13.970Z,26.09
2022-07-28T18:46:40.869Z,26.06
2022-07-28T18:49:07.568Z,26.05
2022-07-28T18:51:34.092Z,26.04
2022-07-28T18:54:00.584Z,25.86
2022-07-28T18:56:27.031Z,25.69
2022-07-28T18:58:56.086Z,25.74
2022-07-28T19:01:22.816Z,25.61
2022-07-28T19:03:49.481Z,25.51
2022-07-28T19:06:16.015Z,25.50
2022-07-28T19:08:42.547Z,25.50
2022-07-28T19:11:09.073Z,25.42
2022-07-28T19:13:35.616Z,25.26
2022-07-28T19:16:02.132Z,25.30
2022-07-28T19:18:28.671Z,25.29
2022-07-28T19:20:55.174Z,25.24
2022-07-28T19:23:21.750Z,25.20
2022-07-28T19:25:48.272Z,25.08
2022-07-28T19:28:14.737Z,25.04
2022-07-28T19:30:41.242Z,24.94
2022-07-28T19:33:07.803Z,25.01
2022-07-28T19:35:34.326Z,24.94
2022-07-28T19:38:02.598Z,24.93
2022-07-28T19:40:31.833Z,24.83
2022-07-28T19:42:58.903Z,24.84
2022-07-28T19:45:25.527Z,24.70
2022-07-28T19:47:52.114Z,24.56
2022-07-28T19:50:18.743Z,24.38
2022-07-28T19:52:45.359Z,24.48
2022-07-28T19:55:12.884Z,24.42
2022-07-28T19:57:45.412Z,24.28
2022-07-28T20:00:13.033Z,24.27
2022-07-28T20:02:39.681Z,24.22
2022-07-28T20:05:07.376Z,24.15
2022-07-28T20:07:33.913Z,24.10
2022-07-28T20:10:00.988Z,24.19
2022-07-28T20:12:30.405Z,24.13
2022-07-28T20:14:59.345Z,24.00
2022-07-28T20:17:38.037Z,23.88
2022-07-28T20:20:08.170Z,23.85
2022-07-28T20:22:34.646Z,23.83
2022-07-28T20:25:01.147Z,23.71
2022-07-28T20:27:28.162Z,23.68
2022-07-28T20:29:54.630Z,23.59
2022-07-28T20:32:21.201Z,23.51
2022-07-28T20:34:48.264Z,23.59
2022-07-28T20:37:18.892Z,23.65
2022-07-28T20:40:01.900Z,23.63
2022-07-28T20:42:28.371Z,23.46
2022-07-28T20:44:54.832Z,23.35
2022-07-28T20:47:23.016Z,23.35
2022-07-28T20:49:49.829Z,23.25
2022-07-28T20:52:16.287Z,23.31
2022-07-28T20:54:42.777Z,23.25
2022-07-28T20:57:09.387Z,23.06
2022-07-28T20:59:35.915Z,23.09
2022-07-28T21:02:02.680Z,23.15
2022-07-28T21:04:29.209Z,23.06
2022-07-28T21:07:01.523Z,23.00
2022-07-28T21:09:29.039Z,23.06
2022-07-28T21:11:55.782Z,22.98
2022-07-28T21:14:22.243Z,23.02
2022-07-28T21:16:48.845Z,23.04
2022-07-28T21:19:15.380Z,23.08
2022-07-28T21:21:41.899Z,22.84
2022-07-28T21:24:08.722Z,22.79
2022-07-28T21:26:35.191Z,22.83
2022-07-28T21:29:27.482Z,22.77
2022-07-28T21:32:04.307Z,22.64
2022-07-28T21:34:34.317Z,22.68
2022-07-28T21:37:02.208Z,22.71
2022-07-28T21:39:28.676Z,22.48
2022-07-28T21:41:55.357Z,22.49
2022-07-28T21:44:21.899Z,22.51
2022-07-28T21:46:48.466Z,22.55
2022-07-28T21:49:15.124Z,22.35
2022-07-28T21:51:42.188Z,22.47
2022-07-28T21:54:08.685Z,22.39
2022-07-28T21:56:35.255Z,22.25
2022-07-28T21:59:02.446Z,22.15
2022-07-28T22:01:29.243Z,21.98
2022-07-28T22:03:56.303Z,22.03
2022-07-28T22:06:22.856Z,22.04
2022-07-28T22:08:53.705Z,22.05
2022-07-28T22:11:21.730Z,22.03
2022-07-28T22:13:48.310Z,21.93
2022-07-28T22:16:15.274Z,21.89
2022-07-28T22:18:41.852Z,21.91
2022-07-28T22:21:08.404Z,21.71
2022-07-28T22:23:34.925Z,21.76
2022-07-28T22:26:01.600Z,21.59
2022-07-28T22:28:29.667Z,21.56
2022-07-28T22:30:56.703Z,21.57
2022-07-28T22:33:23.284Z,21.46
2022-07-28T22:35:49.829Z,21.50
2022-07-28T22:38:16.274Z,21.26
2022-07-28T22:40:43.460Z,21.23
2022-07-28T22:43:10.069Z,21.28
2022-07-28T22:45:49.756Z,21.10
2022-07-28T22:48:17.690Z,20.79
2022-07-28T22:50:44.439Z,20.87
2022-07-28T22:53:11.016Z,20.90
2022-07-28T22:55:37.624Z,20.56
2022-07-28T22:58:05.626Z,20.73
2022-07-28T23:00:32.736Z,20.69
2022-07-28T23:03:02.864Z,20.58
2022-07-28T23:05:30.506Z,20.79
2022-07-28T23:07:57.625Z,20.64
2022-07-28T23:10:25.714Z,20.49
2022-07-28T23:12:52.181Z,20.22
2022-07-28T23:15:18.718Z,20.37
2022-07-28T23:17:45.213Z,20.20
2022-07-28T23:20:11.850Z,20.39
2022-07-28T23:22:41.180Z,20.09
2022-07-28T23:25:08.172Z,20.15
2022-07-28T23:27:34.787Z,20.09
2022-07-28T23:30:01.408Z,19.94
2022-07-28T23:32:27.919Z,19.70
2022-07-28T23:34:54.393Z,19.69
2022-07-28T23:37:20.826Z,19.90
2022-07-28T23:39:47.326Z,19.94
2022-07-28T23:42:13.819Z,19.89
2022-07-28T23:44:40.274Z,19.56
2022-07-28T23:47:06.923Z,19.55
2022-07-28T23:49:33.476Z,19.63
2022-07-28T23:51:59.926Z,19.42
2022-07-28T23:54:26.470Z,19.51
2022-07-28T23:56:55.662Z,19.40
2022-07-28T23:59:23.325Z,19.60
